Time;durP1;ratioP1;P1;durP2;ratioP2;P2;SDS_P1;SDS_P2;PMS_P1;PMS_P2;Temp;Humidity;BMP_temperature;BMP_pressure;BME280_temperature;BME280_humidity;BME280_pressure;Samples;Min_cycle;Max_cycle;Signal;HPM_P1;HPM_P2
2023/05/07 00:08:01;;;;;;;0.80;0.60;;;;;;;;;;20934833;28;20219;-71
2023/05/07 00:18:03;;;;;;;2.47;0.77;;;;;;;;;;20933989;28;20215;-71
2023/05/07 00:28:04;;;;;;;1.77;0.80;;;;;;;;;;20933367;28;20221;-71
2023/05/07 00:38:06;;;;;;;1.67;1.00;;;;;;;;;;20933098;28;20637;-71
2023/05/07 00:48:08;;;;;;;0.80;0.53;;;;;;;;;;20933188;28;20220;-71
2023/05/07 00:58:10;;;;;;;1.27;0.70;;;;;;;;;;20932377;28;20211;-71
2023/05/07 01:08:13;;;;;;;0.83;0.50;;;;;;;;;;20957211;28;20234;-71
2023/05/07 01:18:15;;;;;;;1.27;0.80;;;;;;;;;;20953415;28;20778;-71
2023/05/07 01:28:17;;;;;;;1.20;0.67;;;;;;;;;;20879313;28;20285;-71
2023/05/07 01:38:22;;;;;;;1.37;0.90;;;18.60;99.90;;;;;;20923573;28;20228;-71
2023/05/07 01:48:25;;;;;;;1.43;0.70;;;18.60;99.90;;;;;;20943989;28;20222;-71
2023/05/07 01:58:27;;;;;;;1.07;0.60;;;;;;;;;;20911447;28;20259;-71
2023/05/07 02:08:29;;;;;;;5.70;1.13;;;;;;;;;;20942222;28;20223;-71
2023/05/07 02:18:32;;;;;;;1.00;0.50;;;;;;;;;;20940810;28;20213;-71
2023/05/07 02:28:37;;;;;;;1.40;0.80;;;;;;;;;;20941067;28;20279;-71
2023/05/07 02:38:40;;;;;;;1.37;0.57;;;;;;;;;;20939952;28;20243;-71
2023/05/07 02:48:43;;;;;;;0.80;0.60;;;;;;;;;;20955349;28;20708;-71
2023/05/07 02:58:45;;;;;;;0.70;0.57;;;;;;;;;;20938390;28;20239;-71
2023/05/07 03:08:48;;;;;;;1.63;0.80;;;;;;;;;;20937776;28;20221;-71
2023/05/07 03:18:51;;;;;;;0.80;0.60;;;;;;;;;;20970078;28;20225;-71
2023/05/07 03:28:53;;;;;;;1.50;0.63;;;;;;;;;;20936431;28;20222;-71
2023/05/07 03:38:55;;;;;;;0.93;0.60;;;;;;;;;;20948981;22;20229;-67
2023/05/07 03:49:00;;;;;;;3.27;0.90;;;19.60;99.90;;;;;;21009275;28;20224;-67
2023/05/07 03:59:05;;;;;;;1.77;0.87;;;;;;;;;;21019610;28;20216;-67
2023/05/07 04:09:08;;;;;;;1.27;0.70;;;;;;;;;;21019331;28;20273;-67
2023/05/07 04:19:12;;;;;;;1.20;0.83;;;;;;;;;;21018853;28;20281;-67
2023/05/07 04:29:15;;;;;;;0.87;0.53;;;;;;;;;;21018281;28;20329;-67
2023/05/07 04:39:17;;;;;;;1.77;0.80;;;;;;;;;;21038167;28;20348;-67
2023/05/07 04:49:22;;;;;;;0.73;0.57;;;;;;;;;;20994690;28;20281;-67
2023/05/07 04:59:25;;;;;;;1.23;0.70;;;;;;;;;;21028262;28;20218;-67
2023/05/07 05:09:27;;;;;;;1.73;0.90;;;;;;;;;;20978926;28;20217;-68
2023/05/07 05:19:29;;;;;;;3.07;0.97;;;;;;;;;;21031602;28;20753;-68
2023/05/07 05:29:31;;;;;;;0.97;0.60;;;;;;;;;;20977065;28;20254;-68
2023/05/07 05:39:33;;;;;;;1.07;0.70;;;;;;;;;;20982228;28;20229;-68
2023/05/07 05:49:35;;;;;;;1.90;0.90;;;;;;;;;;21005846;28;20694;-68
2023/05/07 05:59:39;;;;;;;1.53;0.77;;;;;;;;;;21028672;28;20212;-68
2023/05/07 06:09:41;;;;;;;1.40;0.83;;;;;;;;;;21027827;28;20254;-68
2023/05/07 06:19:44;;;;;;;1.13;0.73;;;;;;;;;;21025996;28;20205;-68
2023/05/07 06:29:48;;;;;;;1.07;0.67;;;;;;;;;;20995151;28;20213;-67
2023/05/07 06:39:52;;;;;;;1.17;0.70;;;18.50;99.90;;;;;;20987055;28;20225;-68
2023/05/07 06:49:54;;;;;;;1.03;0.80;;;;;;;;;;20982395;28;20216;-68
2023/05/07 07:00:00;;;;;;;0.80;0.60;;;;;;;;;;21023675;28;20274;-68
2023/05/07 07:10:04;;;;;;;1.37;0.83;;;;;;;;;;20992095;28;20224;-69
2023/05/07 07:20:07;;;;;;;1.03;0.47;;;;;;;;;;20975470;28;20683;-67
2023/05/07 07:30:09;;;;;;;1.00;0.63;;;;;;;;;;21000699;28;20224;-67
2023/05/07 07:40:14;;;;;;;1.20;0.70;;;18.90;99.90;;;;;;20972337;28;20220;-67
2023/05/07 07:50:17;;;;;;;1.03;0.77;;;;;;;;;;20919777;28;20225;-67
2023/05/07 08:00:20;;;;;;;1.20;0.70;;;19.40;99.90;;;;;;20958603;28;20752;-67
2023/05/07 08:10:27;;;;;;;2.20;0.77;;;;;;;;;;21004412;28;20225;-68
2023/05/07 08:20:39;;;;;;;1.30;0.80;;;19.80;99.90;;;;;;21014854;28;20277;-68
2023/05/07 08:30:42;;;;;;;1.03;0.80;;;;;;;;;;21007185;28;20225;-68
2023/05/07 08:40:44;;;;;;;1.10;0.80;;;;;;;;;;20947528;28;20239;-67
2023/05/07 08:50:52;;;;;;;1.00;0.80;;;;;;;;;;20974071;28;20272;-67
2023/05/07 09:00:54;;;;;;;1.00;0.70;;;;;;;;;;21049264;28;20209;-68
2023/05/07 09:10:57;;;;;;;1.20;0.70;;;;;;;;;;21003825;28;20930;-68
2023/05/07 09:20:59;;;;;;;1.80;0.90;;;;;;;;;;20948058;28;20238;-68
2023/05/07 09:31:01;;;;;;;1.30;0.80;;;;;;;;;;20946883;28;20224;-68
2023/05/07 09:41:08;;;;;;;2.40;0.90;;;;;;;;;;20940891;22;20295;-81
2023/05/07 09:51:28;;;;;;;1.50;1.10;;;;;;;;;;20968572;28;20651;-80
2023/05/07 10:01:32;;;;;;;3.97;1.03;;;22.70;99.90;;;;;;20971212;28;20560;-80
2023/05/07 10:11:35;;;;;;;5.20;1.40;;;;;;;;;;20977047;28;20240;-80
2023/05/07 10:21:38;;;;;;;1.42;0.80;;;23.60;99.90;;;;;;20976622;28;20589;-80
2023/05/07 10:31:46;;;;;;;1.50;1.15;;;;;;;;;;20958031;28;20219;-80
2023/05/07 10:41:48;;;;;;;1.48;1.10;;;25.20;99.90;;;;;;20966762;28;20224;-80
2023/05/07 10:52:20;;;;;;;1.38;1.00;;;24.20;99.90;;;;;;21080565;28;20262;-80
2023/05/07 11:02:59;;;;;;;1.63;1.20;;;24.80;99.90;;;;;;21059893;28;20228;-80
2023/05/07 11:13:03;;;;;;;2.15;1.00;;;;;;;;;;20983299;28;20232;-80
2023/05/07 11:23:35;;;;;;;1.42;0.82;;;;;;;;;;20985556;28;20224;-81
2023/05/07 11:34:03;;;;;;;1.15;0.90;;;25.10;99.90;;;;;;21034308;28;20751;-80
2023/05/07 11:44:05;;;;;;;1.05;0.77;;;;;;;;;;20976282;28;20662;-81
2023/05/07 11:54:08;;;;;;;2.03;0.80;;;;;;;;;;20989165;28;20220;-81
2023/05/07 12:04:11;;;;;;;1.20;0.60;;;;;;;;;;20988899;28;20225;-81
2023/05/07 12:14:15;;;;;;;0.90;0.50;;;;;;;;;;20967060;28;20680;-80
2023/05/07 12:24:17;;;;;;;0.70;0.60;;;;;;;;;;20987554;28;20224;-79
2023/05/07 12:34:19;;;;;;;1.00;0.50;;;;;;;;;;20990832;28;20264;-81
2023/05/07 12:44:33;;;;;;;0.88;0.60;;;23.70;99.90;;;;;;21043907;28;20225;-80
2023/05/07 12:54:35;;;;;;;0.70;0.52;;;;;;;;;;20984688;28;20281;-80
2023/05/07 13:04:37;;;;;;;0.88;0.57;;;;;;;;;;20995213;28;20300;-81
2023/05/07 13:14:39;;;;;;;2.13;0.88;;;;;;;;;;20967972;28;20223;-81
2023/05/07 13:24:42;;;;;;;1.20;0.60;;;;;;;;;;21006328;28;20322;-80
2023/05/07 13:34:44;;;;;;;2.53;1.07;;;;;;;;;;21076040;28;20304;-80
2023/05/07 13:44:46;;;;;;;2.27;0.90;;;;;;;;;;21081564;28;20221;-80
2023/05/07 13:55:19;;;;;;;;;;;;;;;;;;;;;
2023/05/07 14:05:34;;;;;;;1.30;0.70;;;;;;;;;;21011996;28;20306;-82
2023/05/07 14:15:37;;;;;;;1.27;0.67;;;;;;;;;;20977875;28;20700;-80
2023/05/07 14:25:39;;;;;;;3.40;1.00;;;;;;;;;;20964347;28;20302;-80
2023/05/07 14:35:41;;;;;;;1.47;0.90;;;;;;;;;;21016904;28;20713;-80
2023/05/07 14:45:43;;;;;;;1.10;0.80;;;;;;;;;;21021843;28;20227;-80
2023/05/07 14:55:45;;;;;;;1.00;0.77;;;;;;;;;;20948263;28;20200;-81
2023/05/07 15:05:47;;;;;;;1.03;0.53;;;;;;;;;;21021591;28;20223;-81
2023/05/07 15:15:49;;;;;;;0.87;0.50;;;;;;;;;;20963136;28;20191;-81
2023/05/07 15:25:51;;;;;;;1.43;0.60;;;;;;;;;;21007243;28;20226;-80
2023/05/07 15:35:58;;;;;;;0.47;0.37;;;;;;;;;;21052653;28;20246;-80
2023/05/07 15:46:01;;;;;;;2.80;0.70;;;;;;;;;;20970625;28;20231;-81
2023/05/07 15:56:03;;;;;;;0.40;0.33;;;;;;;;;;20996217;28;20230;-81
2023/05/07 16:06:05;;;;;;;0.20;0.20;;;;;;;;;;20973825;28;20584;-80
2023/05/07 16:16:07;;;;;;;0.70;0.50;;;;;;;;;;20988620;28;20216;-80
2023/05/07 16:26:08;;;;;;;0.73;0.60;;;;;;;;;;20967700;28;20227;-80
2023/05/07 16:36:10;;;;;;;2.47;1.50;;;;;;;;;;20981078;28;20283;-81
2023/05/07 16:46:12;;;;;;;0.73;0.33;;;;;;;;;;21058870;28;20246;-80
2023/05/07 16:56:14;;;;;;;0.37;0.30;;;;;;;;;;21017793;28;20219;-82
2023/05/07 17:06:16;;;;;;;0.60;0.40;;;;;;;;;;21006054;28;20232;-80
2023/05/07 17:16:18;;;;;;;2.57;1.80;;;;;;;;;;21043223;28;20203;-80
2023/05/07 17:26:20;;;;;;;2.73;0.70;;;;;;;;;;20995121;28;20226;-80
2023/05/07 17:36:21;;;;;;;1.10;0.40;;;;;;;;;;20998602;28;20600;-82
2023/05/07 17:46:24;;;;;;;0.80;0.40;;;;;;;;;;21021745;28;20277;-81
2023/05/07 17:56:26;;;;;;;1.10;0.40;;;;;;;;;;20981461;28;20220;-81
2023/05/07 18:06:27;;;;;;;0.30;0.30;;;;;;;;;;20959508;28;20947;-81
2023/05/07 18:16:32;;;;;;;2.00;0.60;;;;;;;;;;20990019;28;20239;-81
2023/05/07 18:26:33;;;;;;;0.93;0.60;;;;;;;;;;20949914;28;20302;-81
2023/05/07 18:36:38;;;;;;;0.50;0.50;;;;;;;;;;20930633;28;20239;-80
2023/05/07 18:46:42;;;;;;;0.60;0.40;;;;;;;;;;21001585;28;20270;-81
2023/05/07 18:56:45;;;;;;;0.87;0.30;;;;;;;;;;20993936;28;20318;-81
2023/05/07 19:06:46;;;;;;;0.87;0.60;;;;;;;;;;20973016;28;20724;-81
2023/05/07 19:16:48;;;;;;;0.97;0.60;;;;;;;;;;20954441;28;20217;-82
2023/05/07 19:26:50;;;;;;;0.90;0.60;;;;;;;;;;20901984;28;20280;-81
2023/05/07 19:36:52;;;;;;;1.53;0.60;;;;;;;;;;20946943;28;20229;-81
2023/05/07 19:46:54;;;;;;;2.03;0.90;;;;;;;;;;20984463;28;20242;-81
2023/05/07 19:56:56;;;;;;;2.13;0.80;;;;;;;;;;21001095;28;20218;-82
2023/05/07 20:06:57;;;;;;;0.63;0.50;;;;;;;;;;20980362;28;20597;-80
2023/05/07 20:16:59;;;;;;;1.50;0.97;;;;;;;;;;21028710;28;20224;-80
2023/05/07 20:27:01;;;;;;;1.50;0.80;;;;;;;;;;21072723;28;20299;-80
2023/05/07 20:37:03;;;;;;;1.53;0.83;;;;;;;;;;21068355;28;20295;-80
2023/05/07 20:47:06;;;;;;;2.13;0.80;;;;;;;;;;21067009;28;20286;-80
2023/05/07 20:57:07;;;;;;;1.20;0.70;;;;;;;;;;21054245;28;20714;-81
2023/05/07 21:07:09;;;;;;;1.10;0.70;;;;;;;;;;20974958;28;20220;-81
2023/05/07 21:17:11;;;;;;;3.37;1.00;;;;;;;;;;20968674;28;20230;-81
2023/05/07 21:27:12;;;;;;;0.87;0.70;;;;;;;;;;20998129;28;20251;-81
2023/05/07 21:37:14;;;;;;;1.50;1.00;;;;;;;;;;21002318;28;20233;-81
2023/05/07 21:47:16;;;;;;;3.07;1.23;;;;;;;;;;21009727;28;20241;-82
2023/05/07 21:57:18;;;;;;;3.93;1.30;;;;;;;;;;20985165;28;20630;-82
2023/05/07 22:07:20;;;;;;;1.90;1.13;;;;;;;;;;21024819;28;20241;-82
2023/05/07 22:17:23;;;;;;;1.53;1.13;;;;;;;;;;21002614;28;20209;-82
2023/05/07 22:27:24;;;;;;;1.30;1.00;;;;;;;;;;20970320;28;20229;-83
2023/05/07 22:37:26;;;;;;;1.27;1.00;;;;;;;;;;21039756;28;20323;-82
2023/05/07 22:47:29;;;;;;;1.67;1.00;;;18.10;99.90;;;;;;20981210;28;20221;-82
2023/05/07 22:57:31;;;;;;;1.50;1.10;;;;;;;;;;20996716;28;20278;-81
2023/05/07 23:07:33;;;;;;;3.50;1.33;;;;;;;;;;20960585;28;20237;-82
2023/05/07 23:17:35;;;;;;;2.17;1.50;;;;;;;;;;20994976;28;20214;-82
2023/05/07 23:27:36;;;;;;;2.33;1.50;;;;;;;;;;20937333;28;20217;-82
2023/05/07 23:37:38;;;;;;;2.20;1.60;;;;;;;;;;21075835;28;20216;-82
2023/05/07 23:47:40;;;;;;;2.57;1.90;;;;;;;;;;21038306;28;20591;-82
2023/05/07 23:57:42;;;;;;;2.37;1.73;;;17.90;99.90;;;;;;21076909;28;20222;-83
